createdAt,value
2022-09-22T00:01:42.311Z,98905.43
2022-09-22T00:04:16.852Z,98899.08
2022-09-22T00:06:50.750Z,98901.30
2022-09-22T00:09:21.375Z,98895.80
2022-09-22T00:11:50.231Z,98894.98
2022-09-22T00:14:21.519Z,98895.55
2022-09-22T00:16:53.383Z,98894.96
2022-09-22T00:19:25.328Z,98891.95
2022-09-22T00:21:54.784Z,98891.32
2022-09-22T00:24:25.441Z,98890.83
2022-09-22T00:26:57.023Z,98894.23
2022-09-22T00:29:29.353Z,98899.36
2022-09-22T00:32:00.288Z,98901.74
2022-09-22T00:34:31.445Z,98899.85
2022-09-22T00:37:00.124Z,98897.95
2022-09-22T00:39:30.272Z,98901.46
2022-09-22T00:41:58.440Z,98902.50
2022-09-22T00:44:37.887Z,98899.67
2022-09-22T00:47:19.933Z,98900.61
2022-09-22T00:49:54.695Z,98901.61
2022-09-22T00:52:27.535Z,98903.29
2022-09-22T00:55:01.118Z,98899.29
2022-09-22T00:57:33.632Z,98894.16
2022-09-22T01:00:07.951Z,98894.04
2022-09-22T01:02:37.183Z,98891.19
2022-09-22T01:05:08.588Z,98887.63
2022-09-22T01:07:38.419Z,98884.23
2022-09-22T01:10:11.077Z,98881.99
2022-09-22T01:12:47.807Z,98883.11
2022-09-22T01:15:26.071Z,98886.51
2022-09-22T01:18:12.648Z,98884.68
2022-09-22T01:21:19.762Z,98881.82
2022-09-22T01:24:08.742Z,98882.09
2022-09-22T01:27:10.687Z,98885.27
2022-09-22T01:29:59.001Z,98884.82
2022-09-22T01:32:31.597Z,98883.98
2022-09-22T01:35:07.030Z,98883.40
2022-09-22T01:37:47.246Z,98886.33
2022-09-22T01:40:21.725Z,98882.77
2022-09-22T01:42:54.507Z,98885.31
2022-09-22T01:45:29.167Z,98884.74
2022-09-22T01:48:05.424Z,98889.30
2022-09-22T01:50:39.508Z,98884.31
2022-09-22T01:53:16.457Z,98881.38
2022-09-22T01:55:51.452Z,98881.48
2022-09-22T01:58:24.527Z,98879.73
2022-09-22T02:00:56.717Z,98880.13
2022-09-22T02:03:32.618Z,98877.33
2022-09-22T02:06:08.196Z,98881.54
2022-09-22T02:08:42.405Z,98884.98
2022-09-22T02:11:13.997Z,98885.06
2022-09-22T02:13:44.179Z,98883.30
2022-09-22T02:16:15.644Z,98883.77
2022-09-22T02:18:49.343Z,98885.20
2022-09-22T02:21:19.456Z,98888.05
2022-09-22T02:23:49.582Z,98886.40
2022-09-22T02:26:23.320Z,98888.18
2022-09-22T02:28:55.918Z,98892.46
2022-09-22T02:31:28.132Z,98894.95
2022-09-22T02:33:57.262Z,98888.86
2022-09-22T02:36:38.333Z,98889.08
2022-09-22T02:39:11.227Z,98890.74
2022-09-22T02:41:56.221Z,98891.69
2022-09-22T02:44:31.851Z,98888.71
2022-09-22T02:47:09.002Z,98889.52
2022-09-22T02:49:39.030Z,98886.98
2022-09-22T02:52:13.111Z,98891.55
2022-09-22T02:54:42.290Z,98890.43
2022-09-22T02:57:11.459Z,98889.08
2022-09-22T02:59:40.122Z,98889.77
2022-09-22T03:02:08.807Z,98891.60
2022-09-22T03:04:37.474Z,98893.30
2022-09-22T03:07:06.702Z,98893.61
2022-09-22T03:09:35.382Z,98896.09
2022-09-22T03:12:04.558Z,98897.13
2022-09-22T03:14:33.291Z,98899.44
2022-09-22T03:17:02.099Z,98902.61
2022-09-22T03:19:34.045Z,98904.64
2022-09-22T03:22:02.656Z,98897.63
2022-09-22T03:24:31.444Z,98903.81
2022-09-22T03:27:00.129Z,98903.68
2022-09-22T03:29:28.904Z,98905.90
2022-09-22T03:31:58.096Z,98904.60
2022-09-22T03:34:27.300Z,98904.70
2022-09-22T03:36:56.017Z,98903.57
2022-09-22T03:39:24.830Z,98905.77
2022-09-22T03:41:53.602Z,98904.16
2022-09-22T03:44:22.355Z,98903.02
2022-09-22T03:46:51.092Z,98903.07
2022-09-22T03:49:20.133Z,98902.71
2022-09-22T03:51:48.909Z,98897.73
2022-09-22T03:54:17.686Z,98897.53
2022-09-22T03:56:46.799Z,98897.34
2022-09-22T03:59:18.220Z,98896.92
2022-09-22T04:01:47.034Z,98898.26
2022-09-22T04:04:15.836Z,98898.58
2022-09-22T04:06:44.574Z,98894.70
2022-09-22T04:09:17.006Z,98894.08
2022-09-22T04:11:47.024Z,98895.44
2022-09-22T04:14:16.277Z,98895.22
2022-09-22T04:16:45.496Z,98892.39
2022-09-22T04:19:14.950Z,98893.33
2022-09-22T04:21:44.700Z,98894.92
2022-09-22T04:24:13.328Z,98894.95
2022-09-22T04:27:01.848Z,98892.02
2022-09-22T04:29:31.603Z,98894.20
2022-09-22T04:32:01.437Z,98893.72
2022-09-22T04:34:30.118Z,98885.55
2022-09-22T04:36:58.745Z,98887.35
2022-09-22T04:39:28.029Z,98887.98
2022-09-22T04:41:56.868Z,98887.39
2022-09-22T04:44:25.608Z,98889.92
2022-09-22T04:46:55.590Z,98892.54
2022-09-22T04:49:24.627Z,98894.73
2022-09-22T04:51:53.777Z,98900.14
2022-09-22T04:54:22.478Z,98900.38
2022-09-22T04:56:51.248Z,98902.03
2022-09-22T04:59:19.946Z,98901.54
2022-09-22T05:01:48.582Z,98904.63
2022-09-22T05:04:17.579Z,98906.52
2022-09-22T05:06:46.399Z,98909.86
2022-09-22T05:09:15.328Z,98906.11
2022-09-22T05:11:44.608Z,98907.55
2022-09-22T05:14:13.386Z,98904.66
2022-09-22T05:16:42.316Z,98906.79
2022-09-22T05:19:14.125Z,98905.05
2022-09-22T05:21:42.715Z,98911.38
2022-09-22T05:24:11.297Z,98909.80
2022-09-22T05:26:40.099Z,98915.39
2022-09-22T05:29:09.454Z,98912.31
2022-09-22T05:31:38.445Z,98910.65
2022-09-22T05:34:07.565Z,98908.13
2022-09-22T05:36:36.161Z,98908.08
2022-09-22T05:39:04.991Z,98911.54
2022-09-22T05:41:34.711Z,98911.23
2022-09-22T05:44:03.495Z,98915.69
2022-09-22T05:46:32.242Z,98917.04
2022-09-22T05:49:00.893Z,98915.27
2022-09-22T05:51:29.978Z,98919.79
2022-09-22T05:53:58.611Z,98926.44
2022-09-22T05:56:27.224Z,98933.54
2022-09-22T05:58:55.811Z,98937.10
2022-09-22T06:01:25.441Z,98946.02
2022-09-22T06:03:54.659Z,98945.91
2022-09-22T06:06:23.258Z,98944.27
2022-09-22T06:08:52.334Z,98948.75
2022-09-22T06:11:20.946Z,98961.48
2022-09-22T06:13:50.630Z,98960.86
2022-09-22T06:16:19.545Z,98957.84
2022-09-22T06:18:48.788Z,98954.45
2022-09-22T06:21:20.264Z,98952.13
2022-09-22T06:23:49.162Z,98946.11
2022-09-22T06:26:17.932Z,98945.35
2022-09-22T06:28:46.830Z,98947.35
2022-09-22T06:31:15.572Z,98947.61
2022-09-22T06:33:48.044Z,98941.85
2022-09-22T06:36:23.392Z,98942.90
2022-09-22T06:38:53.599Z,98946.70
2022-09-22T06:41:26.361Z,98941.45
2022-09-22T06:43:58.301Z,98941.00
2022-09-22T06:46:28.858Z,98943.12
2022-09-22T06:48:58.680Z,98952.44
2022-09-22T06:51:29.896Z,98947.81
2022-09-22T06:53:59.208Z,98948.43
2022-09-22T06:56:29.014Z,98951.16
2022-09-22T06:59:13.102Z,98949.46
2022-09-22T07:01:43.402Z,98949.70
2022-09-22T07:04:17.071Z,98951.13
2022-09-22T07:06:46.754Z,98948.48
2022-09-22T07:09:16.179Z,98949.52
2022-09-22T07:11:46.594Z,98944.60
2022-09-22T07:14:15.566Z,98947.96
2022-09-22T07:16:44.461Z,98951.71
2022-09-22T07:19:13.925Z,98955.02
2022-09-22T07:21:49.103Z,98952.48
2022-09-22T07:24:17.904Z,98949.97
2022-09-22T07:26:46.588Z,98947.71
2022-09-22T07:29:17.197Z,98945.40
2022-09-22T07:31:46.312Z,98943.86
2022-09-22T07:34:15.860Z,98948.34
2022-09-22T07:36:44.521Z,98948.79
2022-09-22T07:39:13.756Z,98945.41
2022-09-22T07:41:42.863Z,98943.45
2022-09-22T07:44:31.697Z,98944.23
2022-09-22T07:47:06.598Z,98942.23
2022-09-22T07:49:38.128Z,98941.58
2022-09-22T07:52:06.751Z,98943.02
2022-09-22T07:54:36.367Z,98942.95
2022-09-22T07:57:12.748Z,98941.30
2022-09-22T07:59:41.579Z,98941.96
2022-09-22T08:02:11.075Z,98938.77
2022-09-22T08:04:40.576Z,98934.81
2022-09-22T08:07:09.555Z,98935.96
2022-09-22T08:09:38.568Z,98938.55
2022-09-22T08:12:09.554Z,98944.11
2022-09-22T08:14:39.562Z,98942.63
2022-09-22T08:17:11.727Z,98943.33
2022-09-22T08:19:40.950Z,98944.08
2022-09-22T08:22:11.678Z,98949.31
2022-09-22T08:24:42.579Z,98944.55
2022-09-22T08:27:11.632Z,98944.20
2022-09-22T08:29:43.203Z,98942.05
2022-09-22T08:32:11.954Z,98940.15
2022-09-22T08:34:40.502Z,98937.35
2022-09-22T08:37:10.311Z,98939.42
2022-09-22T08:39:39.024Z,98928.05
2022-09-22T08:42:14.277Z,98925.95
2022-09-22T08:44:56.563Z,98928.39
2022-09-22T08:47:51.348Z,98923.86
2022-09-22T08:50:52.162Z,98927.20
2022-09-22T08:53:22.921Z,98927.80
2022-09-22T08:56:02.666Z,98929.40
2022-09-22T08:58:43.869Z,98931.88
2022-09-22T09:01:28.795Z,98930.60
2022-09-22T09:04:14.756Z,98940.86
2022-09-22T09:06:53.301Z,98937.79
2022-09-22T09:09:40.788Z,98940.24
2022-09-22T09:12:36.732Z,98939.06
2022-09-22T09:15:25.383Z,98939.10
2022-09-22T09:17:58.984Z,98934.06
2022-09-22T09:20:38.332Z,98935.86
2022-09-22T09:23:13.868Z,98934.34
2022-09-22T09:25:43.897Z,98933.80
2022-09-22T09:28:17.835Z,98937.14
2022-09-22T09:30:50.519Z,98939.55
2022-09-22T09:33:31.770Z,98941.11
2022-09-22T09:36:01.763Z,98940.88
2022-09-22T09:38:33.802Z,98943.85
2022-09-22T09:41:13.556Z,98952.58
2022-09-22T09:43:44.421Z,98942.10
2022-09-22T09:46:24.136Z,98941.67
2022-09-22T09:49:06.808Z,98939.24
2022-09-22T09:51:39.900Z,98939.09
2022-09-22T09:54:18.901Z,98941.55
2022-09-22T09:57:09.295Z,98943.43
2022-09-22T09:59:58.215Z,98943.99
2022-09-22T10:02:29.608Z,98935.29
2022-09-22T10:05:02.416Z,98936.34
2022-09-22T10:07:42.488Z,98932.23
2022-09-22T10:10:32.161Z,98930.55
2022-09-22T10:13:24.610Z,98924.48
2022-09-22T10:16:06.308Z,98926.30
2022-09-22T10:18:39.781Z,98930.04
2022-09-22T10:21:17.417Z,98927.86
2022-09-22T10:23:48.264Z,98927.00
2022-09-22T10:26:22.044Z,98928.79
2022-09-22T10:29:17.853Z,98932.83
2022-09-22T10:32:05.704Z,98932.08
2022-09-22T10:34:37.994Z,98933.40
2022-09-22T10:37:09.904Z,98928.38
2022-09-22T10:39:45.318Z,98933.19
2022-09-22T10:42:26.687Z,98925.95
2022-09-22T10:44:58.904Z,98921.08
2022-09-22T10:47:39.056Z,98917.36
2022-09-22T10:50:37.687Z,98916.60
2022-09-22T10:53:27.027Z,98914.89
2022-09-22T10:56:05.839Z,98911.77
2022-09-22T10:58:59.107Z,98911.30
2022-09-22T11:01:48.098Z,98911.19
2022-09-22T11:04:43.172Z,98911.52
2022-09-22T11:07:53.927Z,98914.23
2022-09-22T11:10:48.467Z,98912.09
2022-09-22T11:13:31.044Z,98907.77
2022-09-22T11:16:27.040Z,98904.81
2022-09-22T11:19:10.868Z,98903.67
2022-09-22T11:21:51.950Z,98899.42
2022-09-22T11:24:45.960Z,98900.64
2022-09-22T11:27:22.374Z,98894.98
2022-09-22T11:30:16.215Z,98891.38
2022-09-22T11:33:07.058Z,98885.98
2022-09-22T11:35:48.853Z,98881.21
2022-09-22T11:38:30.951Z,98879.73
2022-09-22T11:41:19.074Z,98874.98
2022-09-22T11:44:05.289Z,98868.90
2022-09-22T11:46:46.111Z,98868.91
2022-09-22T11:49:31.435Z,98872.77
2022-09-22T11:52:17.255Z,98862.35
2022-09-22T11:55:03.480Z,98857.77
2022-09-22T11:57:38.082Z,98855.05
2022-09-22T12:00:17.395Z,98851.87
2022-09-22T12:02:54.400Z,98848.93
2022-09-22T12:05:30.745Z,98854.46
2022-09-22T12:08:05.278Z,98853.30
2022-09-22T12:10:40.935Z,98855.78
2022-09-22T12:13:19.692Z,98851.05
2022-09-22T12:15:59.377Z,98847.46
2022-09-22T12:18:40.968Z,98848.74
2022-09-22T12:21:25.514Z,98859.63
2022-09-22T12:23:59.143Z,98862.31
2022-09-22T12:26:30.755Z,98861.50
2022-09-22T12:29:01.372Z,98862.83
2022-09-22T12:31:36.125Z,98862.15
2022-09-22T12:34:15.450Z,98863.15
2022-09-22T12:36:44.813Z,98854.41
2022-09-22T12:39:18.510Z,98853.23
2022-09-22T12:41:51.762Z,98852.48
2022-09-22T12:44:26.592Z,98845.10
2022-09-22T12:47:01.322Z,98836.67
2022-09-22T12:49:31.254Z,98828.41
2022-09-22T12:52:00.430Z,98836.92
2022-09-22T12:54:38.771Z,98840.75
2022-09-22T12:57:30.072Z,98847.40
2022-09-22T13:00:30.634Z,98847.66
2022-09-22T13:03:23.633Z,98844.44
2022-09-22T13:05:52.482Z,98844.23
2022-09-22T13:08:45.439Z,98847.88
2022-09-22T13:11:14.593Z,98852.70
2022-09-22T13:13:44.506Z,98849.64
2022-09-22T13:16:36.983Z,98846.11
2022-09-22T13:19:10.163Z,98847.73
2022-09-22T13:21:39.643Z,98846.77
2022-09-22T13:24:27.476Z,98848.60
2022-09-22T13:27:04.940Z,98847.73
2022-09-22T13:29:34.214Z,98846.32
2022-09-22T13:32:18.762Z,98846.42
2022-09-22T13:34:47.550Z,98845.85
2022-09-22T13:37:22.667Z,98844.95
2022-09-22T13:39:53.953Z,98842.20
2022-09-22T13:42:31.664Z,98841.75
2022-09-22T13:45:04.297Z,98838.16
2022-09-22T13:47:34.481Z,98835.45
2022-09-22T13:50:07.127Z,98832.80
2022-09-22T13:52:38.415Z,98828.55
2022-09-22T13:55:12.514Z,98827.60
2022-09-22T13:57:42.751Z,98828.49
2022-09-22T14:00:23.816Z,98828.67
2022-09-22T14:02:55.665Z,98821.06
2022-09-22T14:05:29.006Z,98825.57
2022-09-22T14:08:11.935Z,98823.22
2022-09-22T14:10:43.257Z,98818.39
2022-09-22T14:13:36.392Z,98815.67
2022-09-22T14:16:12.231Z,98818.90
2022-09-22T14:18:45.818Z,98821.33
2022-09-22T14:21:14.501Z,98821.63
2022-09-22T14:23:49.423Z,98818.39
2022-09-22T14:26:26.957Z,98815.61
2022-09-22T14:28:58.529Z,98808.20
2022-09-22T14:31:32.504Z,98803.11
2022-09-22T14:34:02.613Z,98801.85
2022-09-22T14:36:31.514Z,98798.77
2022-09-22T14:39:09.441Z,98804.01
2022-09-22T14:41:49.602Z,98799.89
2022-09-22T14:44:35.677Z,98804.16
2022-09-22T14:47:26.031Z,98801.15
2022-09-22T14:50:10.874Z,98802.08
2022-09-22T14:52:51.724Z,98798.61
2022-09-22T14:55:29.095Z,98800.92
2022-09-22T14:58:02.193Z,98803.10
2022-09-22T15:00:49.178Z,98809.91
2022-09-22T15:03:22.063Z,98805.60
2022-09-22T15:05:50.813Z,98798.92
2022-09-22T15:08:24.647Z,98798.67
2022-09-22T15:10:55.466Z,98797.09
2022-09-22T15:13:38.290Z,98797.42
2022-09-22T15:16:27.342Z,98799.81
2022-09-22T15:18:56.014Z,98797.00
2022-09-22T15:21:28.526Z,98799.06
2022-09-22T15:23:59.938Z,98807.38
2022-09-22T15:26:32.284Z,98805.06
2022-09-22T15:29:02.019Z,98809.06
2022-09-22T15:31:31.810Z,98809.79
2022-09-22T15:34:02.491Z,98809.90
2022-09-22T15:36:33.258Z,98809.98
2022-09-22T15:39:08.049Z,98807.71
2022-09-22T15:41:37.607Z,98813.13
2022-09-22T15:44:08.198Z,98812.20
2022-09-22T15:46:38.837Z,98809.67
2022-09-22T15:49:10.092Z,98808.38
2022-09-22T15:51:38.798Z,98812.15
2022-09-22T15:54:13.706Z,98807.66
2022-09-22T15:56:42.884Z,98814.18
2022-09-22T15:59:18.783Z,98813.84
2022-09-22T16:01:47.659Z,98807.66
2022-09-22T16:04:16.613Z,98816.70
2022-09-22T16:06:51.463Z,98819.73
2022-09-22T16:09:20.443Z,98822.39
2022-09-22T16:11:49.094Z,98817.75
2022-09-22T16:14:18.064Z,98814.39
2022-09-22T16:16:46.778Z,98817.33
2022-09-22T16:19:15.543Z,98822.84
2022-09-22T16:21:50.515Z,98826.13
2022-09-22T16:24:19.149Z,98828.92
2022-09-22T16:26:48.450Z,98825.59
2022-09-22T16:29:17.271Z,98827.11
2022-09-22T16:31:46.045Z,98826.89
2022-09-22T16:34:24.204Z,98833.09
2022-09-22T16:36:52.895Z,98835.77
2022-09-22T16:39:22.567Z,98834.90
2022-09-22T16:41:51.228Z,98834.73
2022-09-22T16:44:21.382Z,98832.46
2022-09-22T16:46:50.106Z,98833.42
2022-09-22T16:49:19.770Z,98831.64
2022-09-22T16:51:49.938Z,98834.88
2022-09-22T16:54:20.027Z,98835.59
2022-09-22T16:56:50.883Z,98836.51
2022-09-22T16:59:21.639Z,98834.07
2022-09-22T17:01:51.428Z,98838.30
2022-09-22T17:04:20.563Z,98836.27
2022-09-22T17:06:49.958Z,98843.93
2022-09-22T17:09:18.919Z,98848.92
2022-09-22T17:11:49.293Z,98846.06
2022-09-22T17:14:20.994Z,98845.24
2022-09-22T17:16:51.719Z,98849.25
2022-09-22T17:19:25.647Z,98851.34
2022-09-22T17:21:56.304Z,98851.86
2022-09-22T17:24:26.286Z,98857.41
2022-09-22T17:26:56.815Z,98850.71
2022-09-22T17:29:27.930Z,98852.20
2022-09-22T17:31:59.410Z,98855.70
2022-09-22T17:34:32.309Z,98856.02
2022-09-22T17:37:02.832Z,98858.64
2022-09-22T17:39:31.520Z,98858.79
2022-09-22T17:42:01.145Z,98856.17
2022-09-22T17:44:32.979Z,98863.58
2022-09-22T17:47:20.179Z,98863.19
2022-09-22T17:50:07.260Z,98860.83
2022-09-22T17:52:54.596Z,98860.98
2022-09-22T17:55:24.919Z,98862.15
2022-09-22T17:57:55.621Z,98864.17
2022-09-22T18:00:25.068Z,98863.86
2022-09-22T18:02:54.507Z,98866.92
2022-09-22T18:05:27.129Z,98871.34
2022-09-22T18:07:59.520Z,98875.90
2022-09-22T18:10:31.742Z,98874.41
2022-09-22T18:13:02.404Z,98880.89
2022-09-22T18:15:33.888Z,98879.70
2022-09-22T18:18:02.693Z,98884.16
2022-09-22T18:20:32.965Z,98883.69
2022-09-22T18:23:01.842Z,98882.00
2022-09-22T18:25:33.269Z,98886.35
2022-09-22T18:28:03.412Z,98888.52
2022-09-22T18:30:32.457Z,98888.99
2022-09-22T18:33:01.469Z,98889.81
2022-09-22T18:35:31.238Z,98893.38
2022-09-22T18:38:00.499Z,98893.00
2022-09-22T18:40:51.376Z,98893.38
2022-09-22T18:43:19.962Z,98890.73
2022-09-22T18:45:48.644Z,98888.83
2022-09-22T18:48:17.787Z,98895.02
2022-09-22T18:50:46.800Z,98899.27
2022-09-22T18:53:17.333Z,98899.64
2022-09-22T18:55:47.807Z,98897.58
2022-09-22T18:58:17.224Z,98897.76
2022-09-22T19:00:50.404Z,98894.66
2022-09-22T19:03:19.191Z,98896.66
2022-09-22T19:05:47.811Z,98894.48
2022-09-22T19:08:16.498Z,98893.83
2022-09-22T19:10:45.148Z,98895.34
2022-09-22T19:13:16.363Z,98889.23
2022-09-22T19:15:45.186Z,98886.25
2022-09-22T19:18:13.821Z,98890.48
2022-09-22T19:20:44.009Z,98892.85
2022-09-22T19:23:12.653Z,98894.55
2022-09-22T19:25:41.642Z,98895.11
2022-09-22T19:28:13.346Z,98893.58
2022-09-22T19:30:42.430Z,98893.10
2022-09-22T19:33:13.913Z,98892.65
2022-09-22T19:35:42.746Z,98893.01
2022-09-22T19:38:12.765Z,98895.81
2022-09-22T19:40:41.432Z,98893.75
2022-09-22T19:43:14.912Z,98895.96
2022-09-22T19:45:43.519Z,98897.08
2022-09-22T19:48:13.662Z,98899.73
2022-09-22T19:50:44.927Z,98904.90
2022-09-22T19:53:13.966Z,98905.65
2022-09-22T19:55:43.174Z,98904.89
2022-09-22T19:58:11.926Z,98900.60
2022-09-22T20:00:43.053Z,98898.88
2022-09-22T20:03:12.081Z,98902.33
2022-09-22T20:05:41.303Z,98904.14
2022-09-22T20:08:15.159Z,98903.16
2022-09-22T20:10:45.219Z,98903.33
2022-09-22T20:13:28.673Z,98902.58
2022-09-22T20:15:57.447Z,98901.50
2022-09-22T20:18:26.648Z,98900.14
2022-09-22T20:20:56.260Z,98898.02
2022-09-22T20:23:25.419Z,98901.04
2022-09-22T20:25:54.113Z,98898.75
2022-09-22T20:28:22.969Z,98897.07
2022-09-22T20:30:51.811Z,98897.60
2022-09-22T20:33:23.333Z,98892.81
2022-09-22T20:35:54.776Z,98890.05
2022-09-22T20:38:23.470Z,98889.26
2022-09-22T20:40:52.119Z,98882.79
2022-09-22T20:43:20.832Z,98884.19
2022-09-22T20:45:49.503Z,98887.81
2022-09-22T20:48:19.308Z,98888.25
2022-09-22T20:50:54.955Z,98887.42
2022-09-22T20:53:23.828Z,98890.45
2022-09-22T20:56:00.691Z,98885.48
2022-09-22T20:58:31.650Z,98886.55
2022-09-22T21:01:01.680Z,98886.56
2022-09-22T21:03:31.299Z,98885.98
2022-09-22T21:06:00.678Z,98883.58
2022-09-22T21:08:48.288Z,98889.41
2022-09-22T21:11:19.553Z,98887.77
2022-09-22T21:14:01.187Z,98878.98
2022-09-22T21:16:30.265Z,98887.37
2022-09-22T21:19:01.632Z,98883.11
2022-09-22T21:21:32.164Z,98875.67
2022-09-22T21:24:01.616Z,98873.73
2022-09-22T21:26:30.783Z,98871.27
2022-09-22T21:28:59.903Z,98876.09
2022-09-22T21:31:29.046Z,98874.95
2022-09-22T21:33:57.970Z,98877.67
2022-09-22T21:36:26.915Z,98875.23
2022-09-22T21:38:57.494Z,98876.05
2022-09-22T21:41:28.121Z,98875.60
2022-09-22T21:43:55.880Z,98874.77
2022-09-22T21:46:28.907Z,98874.06
2022-09-22T21:49:00.877Z,98874.08
2022-09-22T21:51:33.626Z,98873.63
2022-09-22T21:54:04.561Z,98867.96
2022-09-22T21:56:34.769Z,98862.35
2022-09-22T21:59:05.543Z,98867.02
2022-09-22T22:01:36.942Z,98872.32
2022-09-22T22:04:07.215Z,98872.73
2022-09-22T22:06:37.349Z,98876.27
2022-09-22T22:09:08.973Z,98875.73
2022-09-22T22:11:39.749Z,98872.95
2022-09-22T22:14:10.277Z,98869.66
2022-09-22T22:16:43.167Z,98867.88
2022-09-22T22:19:13.800Z,98867.45
2022-09-22T22:21:43.815Z,98862.60
2022-09-22T22:24:27.888Z,98863.10
2022-09-22T22:27:00.567Z,98862.39
2022-09-22T22:29:30.983Z,98864.45
2022-09-22T22:31:59.914Z,98864.64
2022-09-22T22:34:56.034Z,98857.64
2022-09-22T22:37:25.151Z,98860.36
2022-09-22T22:39:53.815Z,98860.40
2022-09-22T22:42:22.514Z,98860.84
2022-09-22T22:44:51.138Z,98857.19
2022-09-22T22:47:21.051Z,98855.89
2022-09-22T22:49:50.828Z,98852.07
2022-09-22T22:52:19.440Z,98849.83
2022-09-22T22:54:48.098Z,98850.61
2022-09-22T22:57:18.303Z,98848.55
2022-09-22T22:59:48.047Z,98841.34
2022-09-22T23:02:16.692Z,98844.10
2022-09-22T23:04:46.537Z,98838.99
2022-09-22T23:07:15.644Z,98835.66
2022-09-22T23:09:44.228Z,98833.92
2022-09-22T23:12:17.847Z,98834.84
2022-09-22T23:14:45.625Z,98837.59
2022-09-22T23:17:15.124Z,98838.88
2022-09-22T23:19:44.897Z,98839.61
2022-09-22T23:22:13.566Z,98838.33
2022-09-22T23:24:45.291Z,98833.39
2022-09-22T23:27:14.031Z,98827.23
2022-09-22T23:29:42.818Z,98823.58
2022-09-22T23:32:11.462Z,98824.27
2022-09-22T23:34:40.584Z,98826.55
2022-09-22T23:37:09.455Z,98824.92
2022-09-22T23:39:38.148Z,98817.87
2022-09-22T23:42:07.491Z,98820.16
2022-09-22T23:44:36.225Z,98817.27
2022-09-22T23:47:05.219Z,98814.81
2022-09-22T23:49:33.882Z,98814.30
2022-09-22T23:52:02.724Z,98811.39
2022-09-22T23:54:32.391Z,98810.34
2022-09-22T23:57:01.111Z,98811.42
2022-09-22T23:59:29.712Z,98814.50
